Terminal Aerodrome Forecast
Issued by NWS

Home | Current Version | Previous Version | Text Only | Print | Product List | Glossary On
Versions: 1 2 3 4 5 6 7 8 9 10 11 12 13 14 15 16 17
000
FTUS46 KLOX 300500
TAFPRB
TAF
KPRB 300529Z 3006/3106 32007KT P6SM SKC
     FM300800 VRB03KT P6SM SKC
     FM301200 VRB03KT P6SM OVC005
     FM301600 VRB03KT P6SM SKC
     FM302100 32007KT P6SM SKC
     FM310100 32015KT P6SM SKC
     FM310500 32007KT P6SM SKC=

USA.gov is the U.S. government's official web portal to all federal, state and local government web resources and services.